sensor_id;sensor_type;location;lat;lon;timestamp;pressure;altitude;pressure_sealevel;temperature;humidity
14689;BME280;7432;48.728;9.154;2023-03-03T00:00:58;96742.84;;;2.14;87.04
14689;BME280;7432;48.728;9.154;2023-03-03T00:03:25;96741.94;;;2.15;86.68
14689;BME280;7432;48.728;9.154;2023-03-03T00:05:52;96745.19;;;2.04;87.27
14689;BME280;7432;48.728;9.154;2023-03-03T00:08:21;96737.47;;;2.06;87.07
14689;BME280;7432;48.728;9.154;2023-03-03T00:10:48;96731.25;;;1.97;86.72
14689;BME280;7432;48.728;9.154;2023-03-03T00:13:16;96747.22;;;1.99;87.39
14689;BME280;7432;48.728;9.154;2023-03-03T00:15:43;96733.09;;;1.95;86.95
14689;BME280;7432;48.728;9.154;2023-03-03T00:18:16;96745.28;;;1.90;87.51
14689;BME280;7432;48.728;9.154;2023-03-03T00:20:47;96734.50;;;1.87;88.21
14689;BME280;7432;48.728;9.154;2023-03-03T00:23:19;96744.97;;;1.82;87.68
14689;BME280;7432;48.728;9.154;2023-03-03T00:25:49;96722.03;;;1.71;88.37
14689;BME280;7432;48.728;9.154;2023-03-03T00:28:22;96751.91;;;1.80;87.58
14689;BME280;7432;48.728;9.154;2023-03-03T00:30:49;96742.63;;;1.66;87.56
14689;BME280;7432;48.728;9.154;2023-03-03T00:33:24;96742.00;;;1.63;89.03
14689;BME280;7432;48.728;9.154;2023-03-03T00:35:53;96744.31;;;1.53;89.00
14689;BME280;7432;48.728;9.154;2023-03-03T00:38:20;96738.03;;;1.46;88.79
14689;BME280;7432;48.728;9.154;2023-03-03T00:40:48;96739.22;;;1.41;89.37
14689;BME280;7432;48.728;9.154;2023-03-03T00:43:18;96732.94;;;1.34;89.82
14689;BME280;7432;48.728;9.154;2023-03-03T00:45:46;96739.63;;;1.35;89.46
14689;BME280;7432;48.728;9.154;2023-03-03T00:48:22;96745.47;;;1.23;89.85
14689;BME280;7432;48.728;9.154;2023-03-03T00:50:49;96738.25;;;1.16;89.05
14689;BME280;7432;48.728;9.154;2023-03-03T00:53:17;96732.84;;;1.08;90.34
14689;BME280;7432;48.728;9.154;2023-03-03T00:55:45;96698.72;;;0.87;90.67
14689;BME280;7432;48.728;9.154;2023-03-03T00:58:14;96730.41;;;1.07;89.55
14689;BME280;7432;48.728;9.154;2023-03-03T01:00:40;96733.22;;;1.02;90.55
14689;BME280;7432;48.728;9.154;2023-03-03T01:03:09;96737.06;;;0.95;90.46
14689;BME280;7432;48.728;9.154;2023-03-03T01:05:38;96741.31;;;0.95;90.75
14689;BME280;7432;48.728;9.154;2023-03-03T01:08:04;96735.63;;;0.91;91.00
14689;BME280;7432;48.728;9.154;2023-03-03T01:10:33;96737.25;;;0.92;90.58
14689;BME280;7432;48.728;9.154;2023-03-03T01:13:01;96726.69;;;0.86;91.17
14689;BME280;7432;48.728;9.154;2023-03-03T01:15:29;96732.63;;;0.85;90.66
14689;BME280;7432;48.728;9.154;2023-03-03T01:17:56;96736.19;;;0.82;91.15
14689;BME280;7432;48.728;9.154;2023-03-03T01:20:22;96733.13;;;0.77;91.10
14689;BME280;7432;48.728;9.154;2023-03-03T01:22:49;96726.81;;;0.70;91.15
14689;BME280;7432;48.728;9.154;2023-03-03T01:25:15;96731.19;;;0.68;90.64
14689;BME280;7432;48.728;9.154;2023-03-03T01:27:41;96732.72;;;0.56;90.90
14689;BME280;7432;48.728;9.154;2023-03-03T01:30:09;96724.41;;;0.54;92.04
14689;BME280;7432;48.728;9.154;2023-03-03T01:32:37;96732.81;;;0.55;91.54
14689;BME280;7432;48.728;9.154;2023-03-03T01:35:04;96728.13;;;0.49;91.56
14689;BME280;7432;48.728;9.154;2023-03-03T01:37:30;96737.44;;;0.48;92.36
14689;BME280;7432;48.728;9.154;2023-03-03T01:39:57;96728.91;;;0.49;91.58
14689;BME280;7432;48.728;9.154;2023-03-03T01:42:23;96734.38;;;0.43;92.08
14689;BME280;7432;48.728;9.154;2023-03-03T01:45:10;96731.09;;;0.41;92.61
14689;BME280;7432;48.728;9.154;2023-03-03T01:47:41;96722.59;;;0.42;92.42
14689;BME280;7432;48.728;9.154;2023-03-03T01:50:11;96724.44;;;0.40;92.82
14689;BME280;7432;48.728;9.154;2023-03-03T01:52:41;96734.75;;;0.37;92.11
14689;BME280;7432;48.728;9.154;2023-03-03T01:55:12;96727.78;;;0.41;92.01
14689;BME280;7432;48.728;9.154;2023-03-03T01:57:41;96722.50;;;0.44;92.58
14689;BME280;7432;48.728;9.154;2023-03-03T02:00:10;96720.19;;;0.41;92.79
14689;BME280;7432;48.728;9.154;2023-03-03T02:02:39;96731.22;;;0.26;92.75
14689;BME280;7432;48.728;9.154;2023-03-03T02:05:08;96728.50;;;0.29;92.60
14689;BME280;7432;48.728;9.154;2023-03-03T02:07:35;96723.53;;;0.27;92.44
14689;BME280;7432;48.728;9.154;2023-03-03T02:10:05;96718.47;;;0.27;92.67
14689;BME280;7432;48.728;9.154;2023-03-03T02:12:35;96717.75;;;0.25;92.87
14689;BME280;7432;48.728;9.154;2023-03-03T02:15:15;96717.66;;;0.27;92.23
14689;BME280;7432;48.728;9.154;2023-03-03T02:17:43;96707.72;;;0.24;92.65
14689;BME280;7432;48.728;9.154;2023-03-03T02:20:13;96709.78;;;0.17;92.74
14689;BME280;7432;48.728;9.154;2023-03-03T02:22:47;96687.75;;;0.05;92.42
14689;BME280;7432;48.728;9.154;2023-03-03T02:25:21;96696.88;;;0.08;93.00
14689;BME280;7432;48.728;9.154;2023-03-03T02:27:53;96695.34;;;0.05;93.09
14689;BME280;7432;48.728;9.154;2023-03-03T02:30:22;96706.38;;;0.04;93.01
14689;BME280;7432;48.728;9.154;2023-03-03T02:32:49;96695.97;;;0.09;93.45
14689;BME280;7432;48.728;9.154;2023-03-03T02:35:27;96696.25;;;0.04;93.43
14689;BME280;7432;48.728;9.154;2023-03-03T02:37:56;96699.13;;;-0.02;93.51
14689;BME280;7432;48.728;9.154;2023-03-03T02:40:27;96704.66;;;0.05;93.72
14689;BME280;7432;48.728;9.154;2023-03-03T02:42:59;96706.72;;;-0.02;93.57
14689;BME280;7432;48.728;9.154;2023-03-03T02:45:26;96703.00;;;0.04;93.67
14689;BME280;7432;48.728;9.154;2023-03-03T02:47:53;96699.84;;;0.14;93.46
14689;BME280;7432;48.728;9.154;2023-03-03T02:50:19;96703.66;;;0.21;93.78
14689;BME280;7432;48.728;9.154;2023-03-03T02:52:45;96712.25;;;0.33;93.22
14689;BME280;7432;48.728;9.154;2023-03-03T02:55:12;96709.13;;;0.42;93.25
14689;BME280;7432;48.728;9.154;2023-03-03T02:57:38;96710.94;;;0.54;92.47
14689;BME280;7432;48.728;9.154;2023-03-03T03:00:07;96710.09;;;0.68;92.43
14689;BME280;7432;48.728;9.154;2023-03-03T03:02:34;96712.50;;;0.69;91.48
14689;BME280;7432;48.728;9.154;2023-03-03T03:05:00;96710.75;;;0.84;91.50
14689;BME280;7432;48.728;9.154;2023-03-03T03:07:26;96708.75;;;0.89;91.23
14689;BME280;7432;48.728;9.154;2023-03-03T03:09:53;96713.25;;;0.98;90.91
14689;BME280;7432;48.728;9.154;2023-03-03T03:12:20;96714.06;;;0.98;91.75
14689;BME280;7432;48.728;9.154;2023-03-03T03:14:46;96709.53;;;1.03;90.95
14689;BME280;7432;48.728;9.154;2023-03-03T03:17:14;96711.88;;;1.06;91.42
14689;BME280;7432;48.728;9.154;2023-03-03T03:19:41;96712.47;;;1.10;90.79
14689;BME280;7432;48.728;9.154;2023-03-03T03:22:07;96717.84;;;1.18;90.38
14689;BME280;7432;48.728;9.154;2023-03-03T03:24:33;96712.50;;;1.23;90.54
14689;BME280;7432;48.728;9.154;2023-03-03T03:27:00;96705.22;;;1.31;91.40
14689;BME280;7432;48.728;9.154;2023-03-03T03:29:26;96714.16;;;1.36;91.15
14689;BME280;7432;48.728;9.154;2023-03-03T03:31:52;96706.13;;;1.42;90.38
14689;BME280;7432;48.728;9.154;2023-03-03T03:34:20;96711.22;;;1.42;91.32
14689;BME280;7432;48.728;9.154;2023-03-03T03:36:46;96716.31;;;1.55;90.09
14689;BME280;7432;48.728;9.154;2023-03-03T03:39:13;96712.78;;;1.57;90.27
14689;BME280;7432;48.728;9.154;2023-03-03T03:41:39;96706.78;;;1.58;90.46
14689;BME280;7432;48.728;9.154;2023-03-03T03:44:06;96710.66;;;1.64;89.99
14689;BME280;7432;48.728;9.154;2023-03-03T03:46:32;96705.16;;;1.70;90.04
14689;BME280;7432;48.728;9.154;2023-03-03T03:48:58;96712.78;;;1.70;90.62
14689;BME280;7432;48.728;9.154;2023-03-03T03:51:26;96706.59;;;1.74;89.90
14689;BME280;7432;48.728;9.154;2023-03-03T03:53:53;96710.53;;;1.78;89.63
14689;BME280;7432;48.728;9.154;2023-03-03T03:56:19;96712.06;;;1.80;89.63
14689;BME280;7432;48.728;9.154;2023-03-03T03:58:45;96711.97;;;1.82;90.46
14689;BME280;7432;48.728;9.154;2023-03-03T04:01:12;96710.06;;;1.86;89.65
14689;BME280;7432;48.728;9.154;2023-03-03T04:03:38;96715.94;;;1.86;90.10
14689;BME280;7432;48.728;9.154;2023-03-03T04:06:04;96715.66;;;1.91;89.72
14689;BME280;7432;48.728;9.154;2023-03-03T04:08:32;96711.28;;;1.93;88.48
14689;BME280;7432;48.728;9.154;2023-03-03T04:10:58;96708.41;;;1.97;88.89
14689;BME280;7432;48.728;9.154;2023-03-03T04:13:25;96715.44;;;1.94;88.29
14689;BME280;7432;48.728;9.154;2023-03-03T04:15:53;96717.03;;;1.95;88.35
14689;BME280;7432;48.728;9.154;2023-03-03T04:18:19;96718.28;;;2.02;87.75
14689;BME280;7432;48.728;9.154;2023-03-03T04:20:45;96715.84;;;2.13;87.13
14689;BME280;7432;48.728;9.154;2023-03-03T04:23:12;96719.97;;;2.14;88.04
14689;BME280;7432;48.728;9.154;2023-03-03T04:25:40;96723.25;;;2.16;87.36
14689;BME280;7432;48.728;9.154;2023-03-03T04:28:06;96724.88;;;2.17;86.90
14689;BME280;7432;48.728;9.154;2023-03-03T04:30:33;96719.09;;;2.15;86.17
14689;BME280;7432;48.728;9.154;2023-03-03T04:32:59;96726.00;;;2.13;87.78
14689;BME280;7432;48.728;9.154;2023-03-03T04:35:26;96726.91;;;2.12;86.62
14689;BME280;7432;48.728;9.154;2023-03-03T04:37:52;96726.91;;;2.12;87.75
14689;BME280;7432;48.728;9.154;2023-03-03T04:40:19;96732.69;;;2.14;86.82
14689;BME280;7432;48.728;9.154;2023-03-03T04:42:47;96734.94;;;2.18;87.96
14689;BME280;7432;48.728;9.154;2023-03-03T04:45:13;96726.38;;;2.19;86.70
14689;BME280;7432;48.728;9.154;2023-03-03T04:47:40;96730.44;;;2.22;86.55
14689;BME280;7432;48.728;9.154;2023-03-03T04:50:08;96731.19;;;2.24;86.33
14689;BME280;7432;48.728;9.154;2023-03-03T04:52:34;96736.03;;;2.27;87.48
14689;BME280;7432;48.728;9.154;2023-03-03T04:55:01;96730.84;;;2.28;87.31
14689;BME280;7432;48.728;9.154;2023-03-03T04:57:27;96736.84;;;2.27;87.21
14689;BME280;7432;48.728;9.154;2023-03-03T04:59:55;96744.06;;;2.33;85.84
14689;BME280;7432;48.728;9.154;2023-03-03T05:02:22;96748.22;;;2.34;86.16
14689;BME280;7432;48.728;9.154;2023-03-03T05:04:48;96743.22;;;2.33;86.47
14689;BME280;7432;48.728;9.154;2023-03-03T05:07:14;96745.97;;;2.30;85.40
14689;BME280;7432;48.728;9.154;2023-03-03T05:09:41;96748.31;;;2.33;86.52
14689;BME280;7432;48.728;9.154;2023-03-03T05:12:08;96742.00;;;2.38;85.28
14689;BME280;7432;48.728;9.154;2023-03-03T05:14:34;96747.28;;;2.35;85.13
14689;BME280;7432;48.728;9.154;2023-03-03T05:17:02;96747.41;;;2.34;85.10
14689;BME280;7432;48.728;9.154;2023-03-03T05:19:30;96753.19;;;2.36;83.98
14689;BME280;7432;48.728;9.154;2023-03-03T05:21:56;96760.13;;;2.34;84.96
14689;BME280;7432;48.728;9.154;2023-03-03T05:24:23;96755.84;;;2.34;84.48
14689;BME280;7432;48.728;9.154;2023-03-03T05:26:49;96752.81;;;2.29;83.33
14689;BME280;7432;48.728;9.154;2023-03-03T05:29:16;96757.56;;;2.34;83.37
14689;BME280;7432;48.728;9.154;2023-03-03T05:31:42;96752.50;;;2.34;83.09
14689;BME280;7432;48.728;9.154;2023-03-03T05:34:10;96756.34;;;2.39;83.10
14689;BME280;7432;48.728;9.154;2023-03-03T05:36:36;96749.94;;;2.34;83.57
14689;BME280;7432;48.728;9.154;2023-03-03T05:39:03;96755.41;;;2.40;83.68
14689;BME280;7432;48.728;9.154;2023-03-03T05:41:29;96758.69;;;2.43;83.43
14689;BME280;7432;48.728;9.154;2023-03-03T05:43:55;96762.94;;;2.42;82.81
14689;BME280;7432;48.728;9.154;2023-03-03T05:46:22;96759.50;;;2.43;82.75
14689;BME280;7432;48.728;9.154;2023-03-03T05:48:48;96763.66;;;2.44;83.34
14689;BME280;7432;48.728;9.154;2023-03-03T05:51:16;96769.06;;;2.39;82.97
14689;BME280;7432;48.728;9.154;2023-03-03T05:53:42;96769.66;;;2.43;83.51
14689;BME280;7432;48.728;9.154;2023-03-03T05:56:09;96775.03;;;2.38;82.97
14689;BME280;7432;48.728;9.154;2023-03-03T05:58:35;96778.19;;;2.42;83.10
14689;BME280;7432;48.728;9.154;2023-03-03T06:01:02;96776.78;;;2.51;81.63
14689;BME280;7432;48.728;9.154;2023-03-03T06:03:28;96776.66;;;2.52;81.08
14689;BME280;7432;48.728;9.154;2023-03-03T06:05:54;96781.94;;;2.49;81.27
14689;BME280;7432;48.728;9.154;2023-03-03T06:08:22;96782.06;;;2.48;81.48
14689;BME280;7432;48.728;9.154;2023-03-03T06:10:49;96777.69;;;2.37;80.84
14689;BME280;7432;48.728;9.154;2023-03-03T06:13:15;96781.44;;;2.44;80.09
14689;BME280;7432;48.728;9.154;2023-03-03T06:15:42;96780.25;;;2.37;80.94
14689;BME280;7432;48.728;9.154;2023-03-03T06:18:08;96784.91;;;2.30;80.89
14689;BME280;7432;48.728;9.154;2023-03-03T06:20:35;96782.38;;;2.30;81.06
14689;BME280;7432;48.728;9.154;2023-03-03T06:23:03;96781.34;;;2.33;81.64
14689;BME280;7432;48.728;9.154;2023-03-03T06:25:31;96796.19;;;2.39;81.28
14689;BME280;7432;48.728;9.154;2023-03-03T06:28:00;96791.81;;;2.41;80.36
14689;BME280;7432;48.728;9.154;2023-03-03T06:30:26;96799.63;;;2.38;81.20
14689;BME280;7432;48.728;9.154;2023-03-03T06:32:54;96795.28;;;2.40;80.30
14689;BME280;7432;48.728;9.154;2023-03-03T06:35:21;96796.59;;;2.46;79.95
14689;BME280;7432;48.728;9.154;2023-03-03T06:37:47;96798.00;;;2.50;78.85
14689;BME280;7432;48.728;9.154;2023-03-03T06:40:15;96799.63;;;2.51;79.61
14689;BME280;7432;48.728;9.154;2023-03-03T06:42:42;96800.03;;;2.45;79.34
14689;BME280;7432;48.728;9.154;2023-03-03T06:45:09;96813.66;;;2.44;78.19
14689;BME280;7432;48.728;9.154;2023-03-03T06:47:36;96817.72;;;2.33;78.68
14689;BME280;7432;48.728;9.154;2023-03-03T06:50:03;96820.06;;;2.36;77.04
14689;BME280;7432;48.728;9.154;2023-03-03T06:52:29;96819.66;;;2.43;76.69
14689;BME280;7432;48.728;9.154;2023-03-03T06:54:57;96817.72;;;2.46;76.10
14689;BME280;7432;48.728;9.154;2023-03-03T06:57:28;96819.56;;;2.44;76.10
14689;BME280;7432;48.728;9.154;2023-03-03T06:59:57;96826.97;;;2.47;77.58
14689;BME280;7432;48.728;9.154;2023-03-03T07:02:25;96825.88;;;2.51;77.92
14689;BME280;7432;48.728;9.154;2023-03-03T07:04:52;96832.56;;;2.65;76.80
14689;BME280;7432;48.728;9.154;2023-03-03T07:07:22;96833.16;;;2.68;76.90
14689;BME280;7432;48.728;9.154;2023-03-03T07:09:51;96839.84;;;2.82;77.00
14689;BME280;7432;48.728;9.154;2023-03-03T07:12:19;96840.25;;;2.88;76.24
14689;BME280;7432;48.728;9.154;2023-03-03T07:14:49;96835.34;;;2.98;76.68
14689;BME280;7432;48.728;9.154;2023-03-03T07:17:22;96846.81;;;3.04;75.96
14689;BME280;7432;48.728;9.154;2023-03-03T07:19:49;96854.16;;;2.95;75.77
14689;BME280;7432;48.728;9.154;2023-03-03T07:22:17;96855.47;;;3.01;76.88
14689;BME280;7432;48.728;9.154;2023-03-03T07:24:46;96850.03;;;2.94;75.92
14689;BME280;7432;48.728;9.154;2023-03-03T07:27:18;96852.53;;;3.07;76.04
14689;BME280;7432;48.728;9.154;2023-03-03T07:29:46;96852.00;;;3.15;74.84
14689;BME280;7432;48.728;9.154;2023-03-03T07:32:26;96850.88;;;3.19;74.35
14689;BME280;7432;48.728;9.154;2023-03-03T07:34:54;96853.22;;;3.22;74.59
14689;BME280;7432;48.728;9.154;2023-03-03T07:37:29;96843.88;;;3.33;74.26
14689;BME280;7432;48.728;9.154;2023-03-03T07:39:56;96853.13;;;3.47;73.93
14689;BME280;7432;48.728;9.154;2023-03-03T07:42:26;96861.75;;;3.44;72.79
14689;BME280;7432;48.728;9.154;2023-03-03T07:44:54;96852.69;;;3.53;73.15
14689;BME280;7432;48.728;9.154;2023-03-03T07:47:25;96852.44;;;3.69;72.31
14689;BME280;7432;48.728;9.154;2023-03-03T07:49:53;96849.13;;;3.79;71.20
14689;BME280;7432;48.728;9.154;2023-03-03T07:52:27;96857.72;;;4.35;70.04
14689;BME280;7432;48.728;9.154;2023-03-03T07:54:55;96855.22;;;4.91;69.12
14689;BME280;7432;48.728;9.154;2023-03-03T07:57:24;96855.84;;;5.59;66.92
14689;BME280;7432;48.728;9.154;2023-03-03T07:59:53;96858.50;;;6.21;64.24
14689;BME280;7432;48.728;9.154;2023-03-03T08:02:36;96868.59;;;7.25;61.86
14689;BME280;7432;48.728;9.154;2023-03-03T08:05:22;96874.94;;;8.37;56.70
14689;BME280;7432;48.728;9.154;2023-03-03T08:07:51;96868.78;;;9.40;53.51
14689;BME280;7432;48.728;9.154;2023-03-03T08:10:31;96878.75;;;10.16;50.26
14689;BME280;7432;48.728;9.154;2023-03-03T08:13:01;96869.06;;;10.27;49.61
14689;BME280;7432;48.728;9.154;2023-03-03T08:15:36;96879.97;;;10.47;49.72
14689;BME280;7432;48.728;9.154;2023-03-03T08:18:17;96878.97;;;11.17;47.68
14689;BME280;7432;48.728;9.154;2023-03-03T08:20:46;96885.50;;;11.45;46.71
14689;BME280;7432;48.728;9.154;2023-03-03T08:23:14;96885.00;;;11.75;45.25
14689;BME280;7432;48.728;9.154;2023-03-03T08:25:40;96883.72;;;13.55;42.13
14689;BME280;7432;48.728;9.154;2023-03-03T08:28:08;96884.88;;;15.77;38.47
14689;BME280;7432;48.728;9.154;2023-03-03T08:30:34;96885.41;;;17.27;35.63
14689;BME280;7432;48.728;9.154;2023-03-03T08:33:01;96882.56;;;18.17;33.83
14689;BME280;7432;48.728;9.154;2023-03-03T08:35:29;96887.97;;;19.53;31.96
14689;BME280;7432;48.728;9.154;2023-03-03T08:37:55;96879.47;;;20.46;30.69
14689;BME280;7432;48.728;9.154;2023-03-03T08:40:22;96882.34;;;21.12;29.66
14689;BME280;7432;48.728;9.154;2023-03-03T08:42:48;96888.22;;;21.87;28.65
14689;BME280;7432;48.728;9.154;2023-03-03T08:45:15;96884.97;;;22.74;26.75
14689;BME280;7432;48.728;9.154;2023-03-03T08:47:41;96882.22;;;23.39;26.63
14689;BME280;7432;48.728;9.154;2023-03-03T08:50:09;96878.56;;;23.51;26.62
14689;BME280;7432;48.728;9.154;2023-03-03T08:52:37;96875.25;;;23.96;26.08
14689;BME280;7432;48.728;9.154;2023-03-03T08:55:03;96876.84;;;23.85;25.66
14689;BME280;7432;48.728;9.154;2023-03-03T08:57:30;96886.84;;;24.56;24.96
14689;BME280;7432;48.728;9.154;2023-03-03T08:59:56;96888.31;;;24.47;24.47
14689;BME280;7432;48.728;9.154;2023-03-03T09:02:23;96892.06;;;24.68;25.04
14689;BME280;7432;48.728;9.154;2023-03-03T09:04:49;96889.09;;;24.48;24.47
14689;BME280;7432;48.728;9.154;2023-03-03T09:07:15;96906.47;;;25.10;24.08
14689;BME280;7432;48.728;9.154;2023-03-03T09:09:43;96898.78;;;24.92;23.66
14689;BME280;7432;48.728;9.154;2023-03-03T09:12:15;96896.13;;;23.74;25.31
14689;BME280;7432;48.728;9.154;2023-03-03T09:14:42;96902.59;;;22.56;26.08
14689;BME280;7432;48.728;9.154;2023-03-03T09:17:22;96914.56;;;22.10;26.47
14689;BME280;7432;48.728;9.154;2023-03-03T09:19:50;96908.25;;;19.58;28.82
14689;BME280;7432;48.728;9.154;2023-03-03T09:22:19;96903.72;;;18.48;30.39
14689;BME280;7432;48.728;9.154;2023-03-03T09:24:50;96913.03;;;16.51;32.96
14689;BME280;7432;48.728;9.154;2023-03-03T09:27:26;96906.78;;;15.68;34.61
14689;BME280;7432;48.728;9.154;2023-03-03T09:29:52;96908.72;;;14.70;36.36
14689;BME280;7432;48.728;9.154;2023-03-03T09:32:25;96910.63;;;14.08;38.01
14689;BME280;7432;48.728;9.154;2023-03-03T09:34:55;96920.25;;;13.05;39.81
14689;BME280;7432;48.728;9.154;2023-03-03T09:37:23;96914.75;;;12.76;39.90
14689;BME280;7432;48.728;9.154;2023-03-03T09:39:54;96908.28;;;12.08;41.53
14689;BME280;7432;48.728;9.154;2023-03-03T09:42:41;96905.91;;;11.22;43.46
14689;BME280;7432;48.728;9.154;2023-03-03T09:45:25;96910.03;;;11.49;43.64
14689;BME280;7432;48.728;9.154;2023-03-03T09:48:17;96908.75;;;11.53;44.12
14689;BME280;7432;48.728;9.154;2023-03-03T09:50:59;96904.19;;;11.81;43.32
14689;BME280;7432;48.728;9.154;2023-03-03T09:53:41;96903.31;;;11.64;43.52
14689;BME280;7432;48.728;9.154;2023-03-03T09:56:16;96901.34;;;12.00;43.37
14689;BME280;7432;48.728;9.154;2023-03-03T09:58:56;96903.00;;;12.25;42.95
14689;BME280;7432;48.728;9.154;2023-03-03T10:01:44;96907.34;;;11.67;43.54
14689;BME280;7432;48.728;9.154;2023-03-03T10:04:39;96906.03;;;11.21;44.80
14689;BME280;7432;48.728;9.154;2023-03-03T10:07:19;96907.75;;;11.12;45.38
14689;BME280;7432;48.728;9.154;2023-03-03T10:10:05;96904.19;;;11.05;45.34
14689;BME280;7432;48.728;9.154;2023-03-03T10:12:43;96910.31;;;10.61;47.13
14689;BME280;7432;48.728;9.154;2023-03-03T10:15:20;96908.91;;;11.18;45.37
14689;BME280;7432;48.728;9.154;2023-03-03T10:17:51;96916.25;;;11.05;45.50
14689;BME280;7432;48.728;9.154;2023-03-03T10:20:37;96912.66;;;11.23;45.22
14689;BME280;7432;48.728;9.154;2023-03-03T10:23:17;96911.97;;;10.62;45.30
14689;BME280;7432;48.728;9.154;2023-03-03T10:26:01;96908.47;;;10.71;45.59
14689;BME280;7432;48.728;9.154;2023-03-03T10:29:05;96912.78;;;10.45;45.85
14689;BME280;7432;48.728;9.154;2023-03-03T10:31:54;96916.53;;;10.50;46.19
14689;BME280;7432;48.728;9.154;2023-03-03T10:34:40;96920.81;;;10.24;47.13
14689;BME280;7432;48.728;9.154;2023-03-03T10:37:17;96921.09;;;10.39;46.85
14689;BME280;7432;48.728;9.154;2023-03-03T10:40:07;96912.16;;;9.98;47.15
14689;BME280;7432;48.728;9.154;2023-03-03T10:43:08;96913.81;;;9.72;48.32
14689;BME280;7432;48.728;9.154;2023-03-03T10:46:00;96913.31;;;10.13;47.30
14689;BME280;7432;48.728;9.154;2023-03-03T10:48:49;96918.31;;;10.15;48.05
14689;BME280;7432;48.728;9.154;2023-03-03T10:51:25;96909.00;;;10.04;47.73
14689;BME280;7432;48.728;9.154;2023-03-03T10:54:03;96905.19;;;9.90;47.78
14689;BME280;7432;48.728;9.154;2023-03-03T10:56:41;96900.56;;;10.11;48.31
14689;BME280;7432;48.728;9.154;2023-03-03T10:59:26;96904.78;;;10.13;48.17
14689;BME280;7432;48.728;9.154;2023-03-03T11:02:02;96902.41;;;10.54;46.79
14689;BME280;7432;48.728;9.154;2023-03-03T11:05:11;96906.09;;;10.34;46.99
14689;BME280;7432;48.728;9.154;2023-03-03T11:07:45;96904.03;;;10.38;46.69
14689;BME280;7432;48.728;9.154;2023-03-03T11:10:23;96912.88;;;10.18;46.90
14689;BME280;7432;48.728;9.154;2023-03-03T11:13:01;96907.41;;;10.56;46.40
14689;BME280;7432;48.728;9.154;2023-03-03T11:15:42;96910.13;;;10.54;46.61
14689;BME280;7432;48.728;9.154;2023-03-03T11:18:22;96909.50;;;10.60;46.12
14689;BME280;7432;48.728;9.154;2023-03-03T11:20:54;96912.72;;;10.19;47.50
14689;BME280;7432;48.728;9.154;2023-03-03T11:23:41;96909.19;;;10.38;46.67
14689;BME280;7432;48.728;9.154;2023-03-03T11:26:16;96914.22;;;10.22;47.04
14689;BME280;7432;48.728;9.154;2023-03-03T11:28:58;96914.34;;;10.20;47.75
14689;BME280;7432;48.728;9.154;2023-03-03T11:31:32;96925.41;;;10.38;47.46
14689;BME280;7432;48.728;9.154;2023-03-03T11:34:14;96918.81;;;9.73;48.01
14689;BME280;7432;48.728;9.154;2023-03-03T11:36:44;96923.88;;;9.38;49.37
14689;BME280;7432;48.728;9.154;2023-03-03T11:39:16;96922.41;;;8.99;50.94
14689;BME280;7432;48.728;9.154;2023-03-03T11:41:57;96916.84;;;8.93;51.83
14689;BME280;7432;48.728;9.154;2023-03-03T11:44:28;96924.84;;;8.90;51.84
14689;BME280;7432;48.728;9.154;2023-03-03T11:46:59;96925.09;;;8.97;50.95
14689;BME280;7432;48.728;9.154;2023-03-03T11:49:33;96911.69;;;9.03;51.73
14689;BME280;7432;48.728;9.154;2023-03-03T11:52:18;96911.28;;;8.52;51.98
14689;BME280;7432;48.728;9.154;2023-03-03T11:54:49;96901.63;;;8.73;53.09
14689;BME280;7432;48.728;9.154;2023-03-03T11:57:20;96897.00;;;8.86;53.01
14689;BME280;7432;48.728;9.154;2023-03-03T12:00:00;96896.13;;;9.05;52.48
14689;BME280;7432;48.728;9.154;2023-03-03T12:02:44;96890.41;;;9.20;52.47
14689;BME280;7432;48.728;9.154;2023-03-03T12:05:31;96886.88;;;9.48;51.42
14689;BME280;7432;48.728;9.154;2023-03-03T12:08:04;96885.38;;;9.56;49.73
14689;BME280;7432;48.728;9.154;2023-03-03T12:10:39;96894.84;;;9.18;50.05
14689;BME280;7432;48.728;9.154;2023-03-03T12:13:17;96886.03;;;8.93;50.81
14689;BME280;7432;48.728;9.154;2023-03-03T12:15:53;96882.44;;;8.77;51.61
14689;BME280;7432;48.728;9.154;2023-03-03T12:18:41;96886.38;;;8.62;53.12
14689;BME280;7432;48.728;9.154;2023-03-03T12:21:28;96887.63;;;8.19;52.68
14689;BME280;7432;48.728;9.154;2023-03-03T12:24:10;96887.88;;;8.07;54.06
14689;BME280;7432;48.728;9.154;2023-03-03T12:26:44;96884.53;;;8.16;54.26
14689;BME280;7432;48.728;9.154;2023-03-03T12:29:25;96879.81;;;7.92;54.22
14689;BME280;7432;48.728;9.154;2023-03-03T12:31:59;96877.34;;;7.91;54.43
14689;BME280;7432;48.728;9.154;2023-03-03T12:34:32;96875.34;;;7.94;53.63
14689;BME280;7432;48.728;9.154;2023-03-03T12:37:22;96872.91;;;7.93;54.97
14689;BME280;7432;48.728;9.154;2023-03-03T12:39:59;96870.09;;;8.05;54.49
14689;BME280;7432;48.728;9.154;2023-03-03T12:42:35;96875.34;;;7.94;53.61
14689;BME280;7432;48.728;9.154;2023-03-03T12:45:17;96876.81;;;7.87;54.46
14689;BME280;7432;48.728;9.154;2023-03-03T12:47:50;96870.75;;;7.88;54.22
14689;BME280;7432;48.728;9.154;2023-03-03T12:50:26;96873.72;;;7.84;54.66
14689;BME280;7432;48.728;9.154;2023-03-03T12:53:06;96873.72;;;7.84;54.57
14689;BME280;7432;48.728;9.154;2023-03-03T12:55:43;96873.72;;;7.93;54.94
14689;BME280;7432;48.728;9.154;2023-03-03T12:58:24;96877.75;;;7.86;54.73
14689;BME280;7432;48.728;9.154;2023-03-03T13:01:04;96872.75;;;8.04;53.49
14689;BME280;7432;48.728;9.154;2023-03-03T13:03:39;96873.31;;;7.98;53.47
14689;BME280;7432;48.728;9.154;2023-03-03T13:06:15;96871.81;;;7.95;54.79
14689;BME280;7432;48.728;9.154;2023-03-03T13:08:54;96868.97;;;7.98;55.13
14689;BME280;7432;48.728;9.154;2023-03-03T13:11:33;96872.91;;;8.02;54.21
14689;BME280;7432;48.728;9.154;2023-03-03T13:14:11;96868.19;;;8.07;54.48
14689;BME280;7432;48.728;9.154;2023-03-03T13:16:44;96869.53;;;8.02;53.96
14689;BME280;7432;48.728;9.154;2023-03-03T13:19:16;96861.31;;;8.08;53.40
14689;BME280;7432;48.728;9.154;2023-03-03T13:21:49;96870.47;;;8.10;52.91
14689;BME280;7432;48.728;9.154;2023-03-03T13:24:22;96869.13;;;8.06;53.90
14689;BME280;7432;48.728;9.154;2023-03-03T13:26:54;96867.78;;;8.02;53.36
14689;BME280;7432;48.728;9.154;2023-03-03T13:29:25;96858.31;;;7.93;55.55
14689;BME280;7432;48.728;9.154;2023-03-03T13:31:54;96856.31;;;7.97;54.13
14689;BME280;7432;48.728;9.154;2023-03-03T13:34:29;96863.44;;;7.93;54.83
14689;BME280;7432;48.728;9.154;2023-03-03T13:37:03;96861.28;;;7.98;54.63
14689;BME280;7432;48.728;9.154;2023-03-03T13:39:36;96856.31;;;7.97;54.82
14689;BME280;7432;48.728;9.154;2023-03-03T13:42:12;96857.78;;;7.99;54.38